createdAt,value
2022-10-22T00:02:20.630Z,63.35
2022-10-22T00:07:10.920Z,63.45
2022-10-22T00:09:33.430Z,63.27
2022-10-22T00:11:56.062Z,63.09
2022-10-22T00:14:19.479Z,63.31
2022-10-22T00:16:42.106Z,63.29
2022-10-22T00:19:04.892Z,63.53
2022-10-22T00:21:29.182Z,63.61
2022-10-22T00:23:51.721Z,63.37
2022-10-22T00:26:14.278Z,63.22
2022-10-22T00:28:37.133Z,63.63
2022-10-22T00:31:00.720Z,63.91
2022-10-22T00:33:23.483Z,63.99
2022-10-22T00:35:47.362Z,64.43
2022-10-22T00:38:10.202Z,63.50
2022-10-22T00:40:34.770Z,63.79
2022-10-22T00:42:58.052Z,63.37
2022-10-22T00:45:26.056Z,63.33
2022-10-22T00:48:07.317Z,63.27
2022-10-22T00:50:38.362Z,63.17
2022-10-22T00:53:03.684Z,63.69
2022-10-22T00:55:28.250Z,64.07
2022-10-22T00:57:54.102Z,63.58
2022-10-22T01:00:17.481Z,64.29
2022-10-22T01:02:40.481Z,64.12
2022-10-22T01:05:03.877Z,64.08
2022-10-22T01:07:26.519Z,64.06
2022-10-22T01:10:00.705Z,63.96
2022-10-22T01:12:53.959Z,64.22
2022-10-22T01:15:28.890Z,64.66
2022-10-22T01:17:54.251Z,64.44
2022-10-22T01:20:16.690Z,65.50
2022-10-22T01:22:44.329Z,65.26
2022-10-22T01:25:32.851Z,65.56
2022-10-22T01:28:17.186Z,64.90
2022-10-22T01:30:41.369Z,65.69
2022-10-22T01:33:08.855Z,65.89
2022-10-22T01:35:35.772Z,65.93
2022-10-22T01:38:01.627Z,66.10
2022-10-22T01:40:26.258Z,66.40
2022-10-22T01:43:15.237Z,66.94
2022-10-22T01:45:57.946Z,66.98
2022-10-22T01:48:39.906Z,66.60
2022-10-22T01:51:39.208Z,66.72
2022-10-22T01:54:01.713Z,66.71
2022-10-22T01:56:42.408Z,67.29
2022-10-22T01:59:25.026Z,66.95
2022-10-22T02:02:03.142Z,66.47
2022-10-22T02:04:35.763Z,67.63
2022-10-22T02:07:01.816Z,67.43
2022-10-22T02:09:27.372Z,67.50
2022-10-22T02:11:50.946Z,68.38
2022-10-22T02:14:15.864Z,68.87
2022-10-22T02:16:42.893Z,68.87
2022-10-22T02:19:25.789Z,68.87
2022-10-22T02:21:48.410Z,68.81
2022-10-22T02:24:11.311Z,69.20
2022-10-22T02:26:54.602Z,68.87
2022-10-22T02:29:30.582Z,69.17
2022-10-22T02:31:56.009Z,68.78
2022-10-22T02:34:23.463Z,69.64
2022-10-22T02:36:49.714Z,69.01
2022-10-22T02:39:14.415Z,68.94
2022-10-22T02:41:37.858Z,69.33
2022-10-22T02:44:02.205Z,69.23
2022-10-22T02:46:25.884Z,68.27
2022-10-22T02:48:48.496Z,68.44
2022-10-22T02:51:11.316Z,68.69
2022-10-22T02:53:33.921Z,68.93
2022-10-22T02:55:56.625Z,68.48
2022-10-22T02:58:19.249Z,68.17
2022-10-22T03:00:42.740Z,68.51
2022-10-22T03:03:05.449Z,68.87
2022-10-22T03:05:28.172Z,69.26
2022-10-22T03:07:50.819Z,69.94
2022-10-22T03:10:13.449Z,70.49
2022-10-22T03:12:35.873Z,70.89
2022-10-22T03:14:58.424Z,71.34
2022-10-22T03:17:21.039Z,71.93
2022-10-22T03:19:43.669Z,72.52
2022-10-22T03:22:11.543Z,72.47
2022-10-22T03:24:41.852Z,72.31
2022-10-22T03:27:04.520Z,72.45
2022-10-22T03:29:27.988Z,72.44
2022-10-22T03:31:50.576Z,72.92
2022-10-22T03:34:13.530Z,72.64
2022-10-22T03:36:36.028Z,72.20
2022-10-22T03:39:00.013Z,72.51
2022-10-22T03:41:22.791Z,72.33
2022-10-22T03:43:49.953Z,72.32
2022-10-22T03:46:12.651Z,72.53
2022-10-22T03:48:35.288Z,73.06
2022-10-22T03:50:57.755Z,74.57
2022-10-22T03:53:40.778Z,74.93
2022-10-22T03:56:28.445Z,75.08
2022-10-22T03:58:51.113Z,74.81
2022-10-22T04:01:14.396Z,74.49
2022-10-22T04:03:37.665Z,74.22
2022-10-22T04:06:04.891Z,74.20
2022-10-22T04:08:27.560Z,74.54
2022-10-22T04:10:52.938Z,74.15
2022-10-22T04:13:15.501Z,73.65
2022-10-22T04:15:38.202Z,73.87
2022-10-22T04:18:00.875Z,74.05
2022-10-22T04:20:23.463Z,74.08
2022-10-22T04:22:46.000Z,74.81
2022-10-22T04:25:08.856Z,74.97
2022-10-22T04:27:32.484Z,74.61
2022-10-22T04:29:54.929Z,74.71
2022-10-22T04:32:17.508Z,74.21
2022-10-22T04:34:40.021Z,74.31
2022-10-22T04:37:03.321Z,74.14
2022-10-22T04:39:26.015Z,74.80
2022-10-22T04:41:48.539Z,74.35
2022-10-22T04:44:13.875Z,74.33
2022-10-22T04:46:39.350Z,74.00
2022-10-22T04:49:03.945Z,73.92
2022-10-22T04:51:27.528Z,74.28
2022-10-22T04:53:50.732Z,74.51
2022-10-22T04:56:23.606Z,74.74
2022-10-22T04:58:50.717Z,75.57
2022-10-22T05:01:16.251Z,75.92
2022-10-22T05:03:39.186Z,75.64
2022-10-22T05:06:02.815Z,75.17
2022-10-22T05:08:25.372Z,75.68
2022-10-22T05:10:47.836Z,76.02
2022-10-22T05:13:10.479Z,76.61
2022-10-22T05:15:38.174Z,76.72
2022-10-22T05:18:00.817Z,76.18
2022-10-22T05:20:23.326Z,75.64
2022-10-22T05:22:45.934Z,75.16
2022-10-22T05:25:08.675Z,75.39
2022-10-22T05:27:31.439Z,75.47
2022-10-22T05:29:53.964Z,75.20
2022-10-22T05:32:16.527Z,75.25
2022-10-22T05:34:39.133Z,75.48
2022-10-22T05:37:02.310Z,75.52
2022-10-22T05:39:24.851Z,75.10
2022-10-22T05:41:47.488Z,74.84
2022-10-22T05:44:12.046Z,75.14
2022-10-22T05:46:36.256Z,74.76
2022-10-22T05:49:02.375Z,74.85
2022-10-22T05:51:26.596Z,75.19
2022-10-22T05:53:53.486Z,74.50
2022-10-22T05:56:17.135Z,74.77
2022-10-22T05:58:40.032Z,75.09
2022-10-22T06:01:08.281Z,75.46
2022-10-22T06:03:32.023Z,75.22
2022-10-22T06:05:54.795Z,75.17
2022-10-22T06:08:19.050Z,74.88
2022-10-22T06:10:43.487Z,74.31
2022-10-22T06:13:08.139Z,74.33
2022-10-22T06:15:30.873Z,74.17
2022-10-22T06:17:53.344Z,73.35
2022-10-22T06:20:16.041Z,73.88
2022-10-22T06:22:38.878Z,74.45
2022-10-22T06:25:01.728Z,74.47
2022-10-22T06:27:24.390Z,74.30
2022-10-22T06:29:48.244Z,74.58
2022-10-22T06:32:10.754Z,74.59
2022-10-22T06:34:33.353Z,74.10
2022-10-22T06:36:55.850Z,73.62
2022-10-22T06:39:18.684Z,73.83
2022-10-22T06:41:41.395Z,73.38
2022-10-22T06:44:03.940Z,72.92
2022-10-22T06:46:26.990Z,72.47
2022-10-22T06:48:51.722Z,71.94
2022-10-22T06:51:14.195Z,71.77
2022-10-22T06:53:37.888Z,71.38
2022-10-22T06:56:05.909Z,71.37
2022-10-22T06:58:28.585Z,70.35
2022-10-22T07:01:01.443Z,70.53
2022-10-22T07:03:24.240Z,70.62
2022-10-22T07:05:46.925Z,70.23
2022-10-22T07:08:09.913Z,70.19
2022-10-22T07:10:32.771Z,67.55
2022-10-22T07:12:55.381Z,68.75
2022-10-22T07:15:17.847Z,69.34
2022-10-22T07:20:08.516Z,70.06
2022-10-22T07:22:31.302Z,70.37
2022-10-22T07:24:53.758Z,70.22
2022-10-22T07:27:16.342Z,70.28
2022-10-22T07:29:39.117Z,69.67
2022-10-22T07:32:01.840Z,69.59
2022-10-22T07:34:24.404Z,69.75
2022-10-22T07:36:47.181Z,68.94
2022-10-22T07:39:09.845Z,68.62
2022-10-22T07:41:32.508Z,68.26
2022-10-22T07:43:55.651Z,68.86
2022-10-22T07:46:18.963Z,69.08
2022-10-22T07:48:41.744Z,69.15
2022-10-22T07:51:04.619Z,68.99
2022-10-22T07:53:27.184Z,68.92
2022-10-22T07:55:51.551Z,68.20
2022-10-22T07:58:14.043Z,67.22
2022-10-22T08:00:37.670Z,67.73
2022-10-22T08:03:00.629Z,66.50
2022-10-22T08:05:23.273Z,66.46
2022-10-22T08:07:45.958Z,66.18
2022-10-22T08:10:09.763Z,66.01
2022-10-22T08:12:32.276Z,65.84
2022-10-22T08:14:54.922Z,65.09
2022-10-22T08:17:17.624Z,63.79
2022-10-22T08:19:40.249Z,63.64
2022-10-22T08:22:03.653Z,63.26
2022-10-22T08:24:27.130Z,63.33
2022-10-22T08:26:49.682Z,62.60
2022-10-22T08:29:12.289Z,62.96
2022-10-22T08:31:34.937Z,62.47
2022-10-22T08:33:57.444Z,62.05
2022-10-22T08:36:20.026Z,60.20
2022-10-22T08:38:42.699Z,60.17
2022-10-22T08:41:12.461Z,59.56
2022-10-22T08:43:48.437Z,59.52
2022-10-22T08:46:30.042Z,58.56
2022-10-22T08:48:55.814Z,58.45
2022-10-22T08:51:23.157Z,57.03
2022-10-22T08:53:53.344Z,56.53
2022-10-22T08:56:16.030Z,58.22
2022-10-22T08:58:46.179Z,57.88
2022-10-22T09:01:16.532Z,58.97
2022-10-22T09:04:10.667Z,57.91
2022-10-22T09:06:36.249Z,57.69
2022-10-22T09:09:00.554Z,56.76
2022-10-22T09:11:38.443Z,56.62
2022-10-22T09:14:02.428Z,55.77
2022-10-22T09:16:35.356Z,56.79
2022-10-22T09:19:07.191Z,56.94
2022-10-22T09:21:30.522Z,57.89
2022-10-22T09:24:04.247Z,57.39
2022-10-22T09:26:27.657Z,58.32
2022-10-22T09:28:52.093Z,58.90
2022-10-22T09:31:15.236Z,58.06
2022-10-22T09:33:37.849Z,58.17
2022-10-22T09:36:03.680Z,59.06
2022-10-22T09:38:29.385Z,58.37
2022-10-22T09:40:57.535Z,58.89
2022-10-22T09:43:20.465Z,58.43
2022-10-22T09:45:44.405Z,58.12
2022-10-22T09:48:14.884Z,57.58
2022-10-22T09:50:55.418Z,58.25
2022-10-22T09:53:48.545Z,57.77
2022-10-22T09:56:35.614Z,56.92
2022-10-22T09:58:58.841Z,57.77
2022-10-22T10:01:28.467Z,57.64
2022-10-22T10:03:51.209Z,58.20
2022-10-22T10:06:18.209Z,59.06
2022-10-22T10:08:40.848Z,57.67
2022-10-22T10:11:11.967Z,56.79
2022-10-22T10:13:46.244Z,56.84
2022-10-22T10:16:21.019Z,56.27
2022-10-22T10:18:53.257Z,57.35
2022-10-22T10:21:32.042Z,58.75
2022-10-22T10:24:03.244Z,59.69
2022-10-22T10:26:35.716Z,60.47
2022-10-22T10:29:21.782Z,60.44
2022-10-22T10:32:03.013Z,59.97
2022-10-22T10:34:48.316Z,59.48
2022-10-22T10:37:35.787Z,59.89
2022-10-22T10:40:16.939Z,59.22
2022-10-22T10:42:44.452Z,59.59
2022-10-22T10:45:43.248Z,60.17
2022-10-22T10:48:27.243Z,59.70
2022-10-22T10:51:11.370Z,59.78
2022-10-22T10:53:40.025Z,60.40
2022-10-22T10:56:17.186Z,60.23
2022-10-22T10:58:40.456Z,59.46
2022-10-22T11:01:28.580Z,59.12
2022-10-22T11:04:06.052Z,58.79
2022-10-22T11:06:31.641Z,59.73
2022-10-22T11:09:07.198Z,59.55
2022-10-22T11:12:00.941Z,59.82
2022-10-22T11:14:36.025Z,59.10
2022-10-22T11:17:26.725Z,59.89
2022-10-22T11:20:16.958Z,59.39
2022-10-22T11:23:13.276Z,59.82
2022-10-22T11:25:39.619Z,59.65
2022-10-22T11:30:39.030Z,60.13
2022-10-22T11:33:10.143Z,59.94
2022-10-22T11:35:40.070Z,59.79
2022-10-22T11:38:06.363Z,59.71
2022-10-22T11:40:28.887Z,59.94
2022-10-22T11:42:57.508Z,59.53
2022-10-22T11:45:23.113Z,58.71
2022-10-22T11:48:10.367Z,58.11
2022-10-22T11:50:44.692Z,58.50
2022-10-22T11:53:34.919Z,57.52
2022-10-22T11:56:19.001Z,57.29
2022-10-22T11:58:50.794Z,56.86
2022-10-22T12:01:22.656Z,56.83
2022-10-22T12:03:50.597Z,58.06
2022-10-22T12:06:13.249Z,57.01
2022-10-22T12:08:46.593Z,56.83
2022-10-22T12:11:11.906Z,58.04
2022-10-22T12:14:10.461Z,58.53
2022-10-22T12:16:54.806Z,58.40
2022-10-22T12:19:34.892Z,59.44
2022-10-22T12:22:06.459Z,59.95
2022-10-22T12:24:36.843Z,59.04
2022-10-22T12:26:59.352Z,60.21
2022-10-22T12:29:23.833Z,60.27
2022-10-22T12:31:47.821Z,61.40
2022-10-22T12:34:15.551Z,61.21
2022-10-22T12:36:39.178Z,61.73
2022-10-22T12:39:04.369Z,61.94
2022-10-22T12:41:34.194Z,62.67
2022-10-22T12:44:05.227Z,61.99
2022-10-22T12:46:29.104Z,61.71
2022-10-22T12:48:51.645Z,61.28
2022-10-22T12:51:20.240Z,62.35
2022-10-22T12:53:52.714Z,62.53
2022-10-22T12:56:24.117Z,61.86
2022-10-22T12:58:52.918Z,62.38
2022-10-22T13:01:17.955Z,62.62
2022-10-22T13:03:42.986Z,62.66
2022-10-22T13:06:24.663Z,62.16
2022-10-22T13:09:02.744Z,62.22
2022-10-22T13:11:37.808Z,62.31
2022-10-22T13:14:21.559Z,62.67
2022-10-22T13:17:05.321Z,62.72
2022-10-22T13:19:42.519Z,62.64
2022-10-22T13:22:05.852Z,62.58
2022-10-22T13:24:30.136Z,62.58
2022-10-22T13:26:54.890Z,62.26
2022-10-22T13:29:20.227Z,62.21
2022-10-22T13:31:51.488Z,61.93
2022-10-22T13:34:19.538Z,62.36
2022-10-22T13:36:42.151Z,62.31
2022-10-22T13:39:08.052Z,62.55
2022-10-22T13:41:34.681Z,62.81
2022-10-22T13:43:57.683Z,63.14
2022-10-22T13:46:21.163Z,63.10
2022-10-22T13:48:44.963Z,63.15
2022-10-22T13:51:31.337Z,63.00
2022-10-22T13:53:54.142Z,62.87
2022-10-22T13:56:19.421Z,62.44
2022-10-22T13:58:43.385Z,62.21
2022-10-22T14:01:16.233Z,63.09
2022-10-22T14:03:38.914Z,63.88
2022-10-22T14:06:01.538Z,64.68
2022-10-22T14:08:25.988Z,65.51
2022-10-22T14:10:48.508Z,65.62
2022-10-22T14:13:12.528Z,65.99
2022-10-22T14:15:35.156Z,66.36
2022-10-22T14:18:00.418Z,67.30
2022-10-22T14:20:37.996Z,68.46
2022-10-22T14:23:13.271Z,68.81
2022-10-22T14:25:35.969Z,69.34
2022-10-22T14:27:58.652Z,69.36
2022-10-22T14:30:26.040Z,69.69
2022-10-22T14:32:49.090Z,70.11
2022-10-22T14:35:19.338Z,70.60
2022-10-22T14:37:42.354Z,70.71
2022-10-22T14:40:05.741Z,70.48
2022-10-22T14:42:29.067Z,70.84
2022-10-22T14:44:51.817Z,71.44
2022-10-22T14:47:14.432Z,71.22
2022-10-22T14:49:37.515Z,71.19
2022-10-22T14:52:00.043Z,71.41
2022-10-22T14:54:22.784Z,71.74
2022-10-22T14:56:45.462Z,72.13
2022-10-22T14:59:08.077Z,72.55
2022-10-22T15:01:30.605Z,72.27
2022-10-22T15:03:53.225Z,72.03
2022-10-22T15:06:15.821Z,71.83
2022-10-22T15:08:39.444Z,71.92
2022-10-22T15:11:05.548Z,72.12
2022-10-22T15:13:29.297Z,72.16
2022-10-22T15:15:51.806Z,72.52
2022-10-22T15:18:14.796Z,72.57
2022-10-22T15:20:37.553Z,72.60
2022-10-22T15:23:00.544Z,73.05
2022-10-22T15:25:23.207Z,72.75
2022-10-22T15:27:50.309Z,72.65
2022-10-22T15:30:14.469Z,72.82
2022-10-22T15:32:37.034Z,73.36
2022-10-22T15:35:01.097Z,73.32
2022-10-22T15:37:23.768Z,73.39
2022-10-22T15:39:46.302Z,73.24
2022-10-22T15:42:09.626Z,73.38
2022-10-22T15:44:32.740Z,73.95
2022-10-22T15:46:56.436Z,73.99
2022-10-22T15:49:19.385Z,74.27
2022-10-22T15:51:42.488Z,74.50
2022-10-22T15:54:07.905Z,74.83
2022-10-22T15:56:33.266Z,75.07
2022-10-22T15:59:04.465Z,75.85
2022-10-22T16:01:27.574Z,75.90
2022-10-22T16:04:00.353Z,76.55
2022-10-22T16:06:22.996Z,77.50
2022-10-22T16:08:45.951Z,78.36
2022-10-22T16:11:08.542Z,78.87
2022-10-22T16:13:31.444Z,79.58
2022-10-22T16:15:54.314Z,79.96
2022-10-22T16:18:18.565Z,80.52
2022-10-22T16:20:42.176Z,80.16
2022-10-22T16:23:04.711Z,81.02
2022-10-22T16:25:27.632Z,81.36
2022-10-22T16:27:51.140Z,81.17
2022-10-22T16:30:13.839Z,81.59
2022-10-22T16:32:36.318Z,82.27
2022-10-22T16:34:59.067Z,82.93
2022-10-22T16:37:21.787Z,82.91
2022-10-22T16:39:44.534Z,83.74
2022-10-22T16:42:07.104Z,84.65
2022-10-22T16:44:29.782Z,84.81
2022-10-22T16:46:52.336Z,85.39
2022-10-22T16:49:14.917Z,85.79
2022-10-22T16:51:37.567Z,85.51
2022-10-22T16:54:00.185Z,85.46
2022-10-22T16:56:23.089Z,86.02
2022-10-22T16:58:52.562Z,85.95
2022-10-22T17:01:17.951Z,85.90
2022-10-22T17:03:41.364Z,85.21
2022-10-22T17:06:05.285Z,85.23
2022-10-22T17:08:28.172Z,85.29
2022-10-22T17:10:50.960Z,84.67
2022-10-22T17:13:13.795Z,85.24
2022-10-22T17:15:36.579Z,84.96
2022-10-22T17:18:00.360Z,85.17
2022-10-22T17:20:23.948Z,85.42
2022-10-22T17:22:46.908Z,85.85
2022-10-22T17:25:17.135Z,85.86
2022-10-22T17:27:40.718Z,85.93
2022-10-22T17:30:06.318Z,86.65
2022-10-22T17:32:29.811Z,86.50
2022-10-22T17:34:52.464Z,87.00
2022-10-22T17:37:14.931Z,86.76
2022-10-22T17:39:37.493Z,86.80
2022-10-22T17:42:00.529Z,86.80
2022-10-22T17:44:23.374Z,86.92
2022-10-22T17:46:46.061Z,87.16
2022-10-22T17:49:16.916Z,87.15
2022-10-22T17:51:40.658Z,87.28
2022-10-22T17:54:07.262Z,87.07
2022-10-22T17:56:32.710Z,87.33
2022-10-22T17:58:56.284Z,86.69
2022-10-22T18:01:25.221Z,86.41
2022-10-22T18:03:48.324Z,85.96
2022-10-22T18:06:11.098Z,86.06
2022-10-22T18:08:33.682Z,86.25
2022-10-22T18:10:56.364Z,86.61
2022-10-22T18:13:19.267Z,86.30
2022-10-22T18:15:41.733Z,86.97
2022-10-22T18:18:04.748Z,86.97
2022-10-22T18:20:27.866Z,86.95
2022-10-22T18:22:50.785Z,87.45
2022-10-22T18:25:13.666Z,86.90
2022-10-22T18:27:37.240Z,87.06
2022-10-22T18:29:59.846Z,87.04
2022-10-22T18:32:22.671Z,87.17
2022-10-22T18:34:45.687Z,87.77
2022-10-22T18:37:08.444Z,88.05
2022-10-22T18:39:31.260Z,88.29
2022-10-22T18:41:54.829Z,88.54
2022-10-22T18:44:18.071Z,87.77
2022-10-22T18:46:41.051Z,87.71
2022-10-22T18:49:04.363Z,87.44
2022-10-22T18:51:30.940Z,87.26
2022-10-22T18:54:05.838Z,87.33
2022-10-22T18:56:40.743Z,87.39
2022-10-22T18:59:03.503Z,87.14
2022-10-22T19:01:29.397Z,87.44
2022-10-22T19:03:52.813Z,87.57
2022-10-22T19:06:18.569Z,87.17
2022-10-22T19:08:41.614Z,87.44
2022-10-22T19:11:13.401Z,88.11
2022-10-22T19:13:35.937Z,88.51
2022-10-22T19:16:02.854Z,88.45
2022-10-22T19:18:25.591Z,88.38
2022-10-22T19:20:49.637Z,89.26
2022-10-22T19:23:13.096Z,89.68
2022-10-22T19:25:37.001Z,90.40
2022-10-22T19:28:00.077Z,90.47
2022-10-22T19:30:24.107Z,90.87
2022-10-22T19:32:48.723Z,91.36
2022-10-22T19:35:11.513Z,91.41
2022-10-22T19:37:35.218Z,91.65
2022-10-22T19:39:57.745Z,91.66
2022-10-22T19:42:21.088Z,91.65
2022-10-22T19:44:43.627Z,91.34
2022-10-22T19:47:06.381Z,91.06
2022-10-22T19:49:29.528Z,91.01
2022-10-22T19:51:52.530Z,90.93
2022-10-22T19:54:18.586Z,91.30
2022-10-22T19:56:41.308Z,91.84
2022-10-22T19:59:05.372Z,92.23
2022-10-22T20:01:28.349Z,92.52
2022-10-22T20:03:52.150Z,92.59
2022-10-22T20:06:16.808Z,92.77
2022-10-22T20:08:39.723Z,92.78
2022-10-22T20:11:02.745Z,92.82
2022-10-22T20:13:25.458Z,92.78
2022-10-22T20:15:49.941Z,92.86
2022-10-22T20:18:12.466Z,92.86
2022-10-22T20:20:38.246Z,92.76
2022-10-22T20:23:00.977Z,92.71
2022-10-22T20:25:23.591Z,92.84
2022-10-22T20:27:46.163Z,92.68
2022-10-22T20:30:10.017Z,92.56
2022-10-22T20:32:36.482Z,92.50
2022-10-22T20:34:58.997Z,92.30
2022-10-22T20:37:21.520Z,92.19
2022-10-22T20:39:44.754Z,92.24
2022-10-22T20:42:07.566Z,92.24
2022-10-22T20:44:30.892Z,92.21
2022-10-22T20:46:53.623Z,92.15
2022-10-22T20:49:17.570Z,91.99
2022-10-22T20:51:41.559Z,91.75
2022-10-22T20:54:05.574Z,91.09
2022-10-22T20:56:28.409Z,90.18
2022-10-22T20:58:56.655Z,89.79
2022-10-22T21:01:22.254Z,89.68
2022-10-22T21:03:46.019Z,89.37
2022-10-22T21:06:08.560Z,89.47
2022-10-22T21:08:31.233Z,89.63
2022-10-22T21:10:53.967Z,89.83
2022-10-22T21:13:19.178Z,89.89
2022-10-22T21:15:42.195Z,90.35
2022-10-22T21:18:05.018Z,90.75
2022-10-22T21:20:27.691Z,91.30
2022-10-22T21:22:50.245Z,91.76
2022-10-22T21:25:13.121Z,91.93
2022-10-22T21:27:35.731Z,92.12
2022-10-22T21:29:58.310Z,92.32
2022-10-22T21:32:20.905Z,92.58
2022-10-22T21:34:43.770Z,92.91
2022-10-22T21:37:06.733Z,93.05
2022-10-22T21:39:29.378Z,93.18
2022-10-22T21:41:51.936Z,93.24
2022-10-22T21:44:14.536Z,93.37
2022-10-22T21:46:37.394Z,93.03
2022-10-22T21:49:02.325Z,92.57
2022-10-22T21:51:25.530Z,92.69
2022-10-22T21:53:48.402Z,93.03
2022-10-22T21:56:19.125Z,93.19
2022-10-22T21:58:41.941Z,93.27
2022-10-22T22:01:04.856Z,93.33
2022-10-22T22:03:27.533Z,93.22
2022-10-22T22:05:52.225Z,93.11
2022-10-22T22:08:15.698Z,93.09
2022-10-22T22:10:38.315Z,92.88
2022-10-22T22:13:01.080Z,92.63
2022-10-22T22:15:23.583Z,92.67
2022-10-22T22:17:46.685Z,93.05
2022-10-22T22:20:10.133Z,93.10
2022-10-22T22:22:33.158Z,92.79
2022-10-22T22:24:55.695Z,93.01
2022-10-22T22:29:43.452Z,93.06
2022-10-22T22:32:06.080Z,93.13
2022-10-22T22:34:28.626Z,93.17
2022-10-22T22:36:51.224Z,93.33
2022-10-22T22:39:19.514Z,93.70
2022-10-22T22:41:42.808Z,94.04
2022-10-22T22:44:05.763Z,94.16
2022-10-22T22:46:28.617Z,94.32
2022-10-22T22:48:51.835Z,94.54
2022-10-22T22:51:14.429Z,94.72
2022-10-22T22:53:36.999Z,94.84
2022-10-22T22:56:05.948Z,94.87
2022-10-22T22:58:28.580Z,94.78
2022-10-22T23:00:51.351Z,94.81
2022-10-22T23:03:13.948Z,94.77
2022-10-22T23:05:37.698Z,94.87
2022-10-22T23:08:00.449Z,94.82
2022-10-22T23:10:23.688Z,94.79
2022-10-22T23:12:46.157Z,94.78
2022-10-22T23:15:09.129Z,94.72
2022-10-22T23:17:31.733Z,94.70
2022-10-22T23:19:54.430Z,94.70
2022-10-22T23:22:16.962Z,94.72
2022-10-22T23:24:39.515Z,94.73
2022-10-22T23:27:03.945Z,94.78
2022-10-22T23:29:30.087Z,94.84
2022-10-22T23:31:53.263Z,94.77
2022-10-22T23:36:42.088Z,94.76
2022-10-22T23:39:06.227Z,94.76
2022-10-22T23:41:28.708Z,94.75
2022-10-22T23:43:51.271Z,94.69
2022-10-22T23:46:14.053Z,94.66
2022-10-22T23:48:39.058Z,94.64
2022-10-22T23:51:13.298Z,94.52
2022-10-22T23:53:36.015Z,94.45
2022-10-22T23:55:58.595Z,94.39
2022-10-22T23:58:21.338Z,94.47
